sensor_id;sensor_type;location;lat;lon;timestamp;P1;durP1;ratioP1;P2;durP2;ratioP2
27833;SDS011;15200;50.570;7.244;2023-04-01T00:01:02;0.88;;;0.28;;
27833;SDS011;15200;50.570;7.244;2023-04-01T00:03:30;1.25;;;0.30;;
27833;SDS011;15200;50.570;7.244;2023-04-01T00:05:58;1.75;;;0.50;;
27833;SDS011;15200;50.570;7.244;2023-04-01T00:08:25;2.47;;;0.55;;
27833;SDS011;15200;50.570;7.244;2023-04-01T00:10:53;1.42;;;0.30;;
27833;SDS011;15200;50.570;7.244;2023-04-01T00:13:20;1.20;;;0.40;;
27833;SDS011;15200;50.570;7.244;2023-04-01T00:15:48;1.52;;;0.30;;
27833;SDS011;15200;50.570;7.244;2023-04-01T00:18:15;2.08;;;0.40;;
27833;SDS011;15200;50.570;7.244;2023-04-01T00:20:44;1.05;;;0.30;;
27833;SDS011;15200;50.570;7.244;2023-04-01T00:23:11;0.42;;;0.37;;
27833;SDS011;15200;50.570;7.244;2023-04-01T00:25:38;0.30;;;0.30;;
27833;SDS011;15200;50.570;7.244;2023-04-01T00:28:06;1.65;;;0.50;;
27833;SDS011;15200;50.570;7.244;2023-04-01T00:30:33;0.50;;;0.40;;
27833;SDS011;15200;50.570;7.244;2023-04-01T00:33:02;2.12;;;0.50;;
27833;SDS011;15200;50.570;7.244;2023-04-01T00:35:30;1.30;;;0.47;;
27833;SDS011;15200;50.570;7.244;2023-04-01T00:37:58;0.78;;;0.25;;
27833;SDS011;15200;50.570;7.244;2023-04-01T00:40:29;0.60;;;0.40;;
27833;SDS011;15200;50.570;7.244;2023-04-01T00:42:57;1.07;;;0.30;;
27833;SDS011;15200;50.570;7.244;2023-04-01T00:45:30;1.35;;;0.40;;
27833;SDS011;15200;50.570;7.244;2023-04-01T00:47:54;1.02;;;0.40;;
27833;SDS011;15200;50.570;7.244;2023-04-01T00:50:22;1.22;;;0.40;;
27833;SDS011;15200;50.570;7.244;2023-04-01T00:52:50;1.10;;;0.60;;
27833;SDS011;15200;50.570;7.244;2023-04-01T00:55:18;1.27;;;0.40;;
27833;SDS011;15200;50.570;7.244;2023-04-01T00:57:46;0.55;;;0.33;;
27833;SDS011;15200;50.570;7.244;2023-04-01T01:00:14;2.85;;;0.35;;
27833;SDS011;15200;50.570;7.244;2023-04-01T01:02:43;0.93;;;0.30;;
27833;SDS011;15200;50.570;7.244;2023-04-01T01:05:12;0.88;;;0.30;;
27833;SDS011;15200;50.570;7.244;2023-04-01T01:07:45;1.20;;;0.40;;
27833;SDS011;15200;50.570;7.244;2023-04-01T01:10:16;1.85;;;0.30;;
27833;SDS011;15200;50.570;7.244;2023-04-01T01:26:07;0.25;;;0.20;;
27833;SDS011;15200;50.570;7.244;2023-04-01T01:29:07;2.17;;;0.33;;
27833;SDS011;15200;50.570;7.244;2023-04-01T01:33:42;0.25;;;0.20;;
27833;SDS011;15200;50.570;7.244;2023-04-01T01:36:09;1.20;;;0.30;;
27833;SDS011;15200;50.570;7.244;2023-04-01T01:38:37;0.88;;;0.30;;
27833;SDS011;15200;50.570;7.244;2023-04-01T01:41:06;1.22;;;0.30;;
27833;SDS011;15200;50.570;7.244;2023-04-01T01:43:38;0.30;;;0.25;;
27833;SDS011;15200;50.570;7.244;2023-04-01T01:46:07;0.40;;;0.23;;
27833;SDS011;15200;50.570;7.244;2023-04-01T01:48:35;0.80;;;0.40;;
27833;SDS011;15200;50.570;7.244;2023-04-01T01:51:08;1.37;;;0.30;;
27833;SDS011;15200;50.570;7.244;2023-04-01T01:53:31;1.98;;;0.50;;
27833;SDS011;15200;50.570;7.244;2023-04-01T01:56:00;3.12;;;0.45;;
27833;SDS011;15200;50.570;7.244;2023-04-01T01:58:29;0.90;;;0.40;;
27833;SDS011;15200;50.570;7.244;2023-04-01T02:01:02;2.08;;;0.35;;
27833;SDS011;15200;50.570;7.244;2023-04-01T02:03:27;2.15;;;0.35;;
27833;SDS011;15200;50.570;7.244;2023-04-01T02:05:56;0.53;;;0.28;;
27833;SDS011;15200;50.570;7.244;2023-04-01T02:09:09;0.95;;;0.30;;
27833;SDS011;15200;50.570;7.244;2023-04-01T02:10:58;0.50;;;0.30;;
27833;SDS011;15200;50.570;7.244;2023-04-01T02:13:24;0.57;;;0.30;;
27833;SDS011;15200;50.570;7.244;2023-04-01T02:15:50;0.45;;;0.25;;
27833;SDS011;15200;50.570;7.244;2023-04-01T02:18:21;4.65;;;0.50;;
27833;SDS011;15200;50.570;7.244;2023-04-01T02:20:49;0.80;;;0.30;;
27833;SDS011;15200;50.570;7.244;2023-04-01T02:23:17;1.60;;;0.35;;
27833;SDS011;15200;50.570;7.244;2023-04-01T02:25:44;1.45;;;0.30;;
27833;SDS011;15200;50.570;7.244;2023-04-01T02:28:12;1.32;;;0.50;;
27833;SDS011;15200;50.570;7.244;2023-04-01T02:30:42;0.70;;;0.28;;
27833;SDS011;15200;50.570;7.244;2023-04-01T02:33:10;1.62;;;0.30;;
27833;SDS011;15200;50.570;7.244;2023-04-01T02:35:38;0.35;;;0.30;;
27833;SDS011;15200;50.570;7.244;2023-04-01T02:38:05;0.35;;;0.35;;
27833;SDS011;15200;50.570;7.244;2023-04-01T02:40:47;1.05;;;0.47;;
27833;SDS011;15200;50.570;7.244;2023-04-01T02:43:11;1.67;;;0.40;;
27833;SDS011;15200;50.570;7.244;2023-04-01T02:45:38;0.60;;;0.30;;
27833;SDS011;15200;50.570;7.244;2023-04-01T02:48:05;0.93;;;0.30;;
27833;SDS011;15200;50.570;7.244;2023-04-01T02:50:33;3.00;;;0.65;;
27833;SDS011;15200;50.570;7.244;2023-04-01T02:53:01;0.85;;;0.25;;
27833;SDS011;15200;50.570;7.244;2023-04-01T02:55:30;3.20;;;0.25;;
27833;SDS011;15200;50.570;7.244;2023-04-01T02:57:57;2.72;;;0.20;;
27833;SDS011;15200;50.570;7.244;2023-04-01T03:00:24;0.20;;;0.10;;
27833;SDS011;15200;50.570;7.244;2023-04-01T03:02:52;1.72;;;0.40;;
27833;SDS011;15200;50.570;7.244;2023-04-01T03:05:19;0.72;;;0.20;;
27833;SDS011;15200;50.570;7.244;2023-04-01T03:07:47;1.12;;;0.28;;
27833;SDS011;15200;50.570;7.244;2023-04-01T03:10:14;0.53;;;0.20;;
27833;SDS011;15200;50.570;7.244;2023-04-01T03:12:42;1.75;;;0.30;;
27833;SDS011;15200;50.570;7.244;2023-04-01T03:15:10;0.70;;;0.30;;
27833;SDS011;15200;50.570;7.244;2023-04-01T03:17:38;1.10;;;0.30;;
27833;SDS011;15200;50.570;7.244;2023-04-01T03:20:07;0.33;;;0.20;;
27833;SDS011;15200;50.570;7.244;2023-04-01T03:22:34;0.30;;;0.20;;
27833;SDS011;15200;50.570;7.244;2023-04-01T03:25:02;0.30;;;0.20;;
27833;SDS011;15200;50.570;7.244;2023-04-01T03:27:29;0.75;;;0.20;;
27833;SDS011;15200;50.570;7.244;2023-04-01T03:29:57;0.65;;;0.55;;
27833;SDS011;15200;50.570;7.244;2023-04-01T03:32:24;0.40;;;0.20;;
27833;SDS011;15200;50.570;7.244;2023-04-01T03:34:53;0.50;;;0.30;;
27833;SDS011;15200;50.570;7.244;2023-04-01T03:37:20;1.52;;;0.40;;
27833;SDS011;15200;50.570;7.244;2023-04-01T03:39:48;1.22;;;0.33;;
27833;SDS011;15200;50.570;7.244;2023-04-01T03:42:15;0.60;;;0.20;;
27833;SDS011;15200;50.570;7.244;2023-04-01T03:44:42;0.80;;;0.20;;
27833;SDS011;15200;50.570;7.244;2023-04-01T03:47:09;0.20;;;0.20;;
27833;SDS011;15200;50.570;7.244;2023-04-01T03:49:37;1.37;;;0.30;;
27833;SDS011;15200;50.570;7.244;2023-04-01T03:52:04;1.62;;;0.20;;
27833;SDS011;15200;50.570;7.244;2023-04-01T03:54:33;0.20;;;0.20;;
27833;SDS011;15200;50.570;7.244;2023-04-01T03:57:01;0.47;;;0.20;;
27833;SDS011;15200;50.570;7.244;2023-04-01T03:59:28;0.68;;;0.40;;
27833;SDS011;15200;50.570;7.244;2023-04-01T04:01:55;0.60;;;0.20;;
27833;SDS011;15200;50.570;7.244;2023-04-01T04:04:23;0.20;;;0.20;;
27833;SDS011;15200;50.570;7.244;2023-04-01T04:06:51;1.10;;;0.20;;
27833;SDS011;15200;50.570;7.244;2023-04-01T04:09:18;1.30;;;0.28;;
27833;SDS011;15200;50.570;7.244;2023-04-01T04:11:45;0.20;;;0.20;;
27833;SDS011;15200;50.570;7.244;2023-04-01T04:14:12;1.07;;;0.20;;
27833;SDS011;15200;50.570;7.244;2023-04-01T04:16:40;0.35;;;0.20;;
27833;SDS011;15200;50.570;7.244;2023-04-01T04:19:07;0.20;;;0.20;;
27833;SDS011;15200;50.570;7.244;2023-04-01T04:21:35;0.28;;;0.20;;
27833;SDS011;15200;50.570;7.244;2023-04-01T04:24:02;1.92;;;0.13;;
27833;SDS011;15200;50.570;7.244;2023-04-01T04:26:30;0.23;;;0.23;;
27833;SDS011;15200;50.570;7.244;2023-04-01T04:28:57;0.55;;;0.20;;
27833;SDS011;15200;50.570;7.244;2023-04-01T04:31:25;0.33;;;0.20;;
27833;SDS011;15200;50.570;7.244;2023-04-01T04:33:52;0.88;;;0.25;;
27833;SDS011;15200;50.570;7.244;2023-04-01T04:36:20;0.75;;;0.17;;
27833;SDS011;15200;50.570;7.244;2023-04-01T04:38:47;0.65;;;0.20;;
27833;SDS011;15200;50.570;7.244;2023-04-01T04:41:15;0.15;;;0.10;;
27833;SDS011;15200;50.570;7.244;2023-04-01T04:43:54;0.20;;;0.20;;
27833;SDS011;15200;50.570;7.244;2023-04-01T04:46:12;0.55;;;0.15;;
27833;SDS011;15200;50.570;7.244;2023-04-01T04:48:40;0.20;;;0.10;;
27833;SDS011;15200;50.570;7.244;2023-04-01T04:51:07;1.15;;;0.20;;
27833;SDS011;15200;50.570;7.244;2023-04-01T04:53:35;0.13;;;0.13;;
27833;SDS011;15200;50.570;7.244;2023-04-01T04:56:02;2.02;;;0.42;;
27833;SDS011;15200;50.570;7.244;2023-04-01T04:58:29;0.30;;;0.10;;
27833;SDS011;15200;50.570;7.244;2023-04-01T05:00:57;1.12;;;0.10;;
27833;SDS011;15200;50.570;7.244;2023-04-01T05:03:24;1.00;;;0.10;;
27833;SDS011;15200;50.570;7.244;2023-04-01T05:05:52;1.22;;;0.20;;
27833;SDS011;15200;50.570;7.244;2023-04-01T05:08:19;0.10;;;0.10;;
27833;SDS011;15200;50.570;7.244;2023-04-01T05:10:46;1.00;;;0.10;;
27833;SDS011;15200;50.570;7.244;2023-04-01T05:13:14;0.10;;;0.10;;
27833;SDS011;15200;50.570;7.244;2023-04-01T05:15:41;0.45;;;0.20;;
27833;SDS011;15200;50.570;7.244;2023-04-01T05:18:08;0.62;;;0.17;;
27833;SDS011;15200;50.570;7.244;2023-04-01T05:20:36;0.10;;;0.10;;
27833;SDS011;15200;50.570;7.244;2023-04-01T05:23:03;0.10;;;0.10;;
27833;SDS011;15200;50.570;7.244;2023-04-01T05:25:30;0.75;;;0.10;;
27833;SDS011;15200;50.570;7.244;2023-04-01T05:27:58;0.10;;;0.10;;
27833;SDS011;15200;50.570;7.244;2023-04-01T05:30:25;0.10;;;0.10;;
27833;SDS011;15200;50.570;7.244;2023-04-01T05:32:52;0.15;;;0.15;;
27833;SDS011;15200;50.570;7.244;2023-04-01T05:35:21;0.10;;;0.10;;
27833;SDS011;15200;50.570;7.244;2023-04-01T05:37:48;0.10;;;0.10;;
27833;SDS011;15200;50.570;7.244;2023-04-01T05:40:15;0.47;;;0.30;;
27833;SDS011;15200;50.570;7.244;2023-04-01T05:42:43;0.25;;;0.20;;
27833;SDS011;15200;50.570;7.244;2023-04-01T05:45:10;0.30;;;0.17;;
27833;SDS011;15200;50.570;7.244;2023-04-01T05:47:37;0.50;;;0.10;;
27833;SDS011;15200;50.570;7.244;2023-04-01T05:50:05;0.10;;;0.10;;
27833;SDS011;15200;50.570;7.244;2023-04-01T05:52:32;3.37;;;0.20;;
27833;SDS011;15200;50.570;7.244;2023-04-01T05:55:00;0.17;;;0.10;;
27833;SDS011;15200;50.570;7.244;2023-04-01T05:57:27;0.10;;;0.10;;
27833;SDS011;15200;50.570;7.244;2023-04-01T05:59:54;0.10;;;0.10;;
27833;SDS011;15200;50.570;7.244;2023-04-01T06:02:22;0.45;;;0.10;;
27833;SDS011;15200;50.570;7.244;2023-04-01T06:04:49;0.10;;;0.10;;
27833;SDS011;15200;50.570;7.244;2023-04-01T06:07:18;0.08;;;0.08;;
27833;SDS011;15200;50.570;7.244;2023-04-01T06:09:45;0.10;;;0.10;;
27833;SDS011;15200;50.570;7.244;2023-04-01T06:15:03;0.15;;;0.15;;
27833;SDS011;15200;50.570;7.244;2023-04-01T06:20:20;0.50;;;0.17;;
27833;SDS011;15200;50.570;7.244;2023-04-01T06:30:51;0.10;;;0.10;;
27833;SDS011;15200;50.570;7.244;2023-04-01T06:33:19;0.15;;;0.13;;
27833;SDS011;15200;50.570;7.244;2023-04-01T06:35:51;0.33;;;0.17;;
27833;SDS011;15200;50.570;7.244;2023-04-01T06:38:20;0.20;;;0.10;;
27833;SDS011;15200;50.570;7.244;2023-04-01T06:41:08;0.13;;;0.13;;
27833;SDS011;15200;50.570;7.244;2023-04-01T06:47:10;0.62;;;0.10;;
27833;SDS011;15200;50.570;7.244;2023-04-01T06:51:28;0.15;;;0.15;;
27833;SDS011;15200;50.570;7.244;2023-04-01T06:54:04;0.13;;;0.10;;
27833;SDS011;15200;50.570;7.244;2023-04-01T06:56:32;0.10;;;0.10;;
27833;SDS011;15200;50.570;7.244;2023-04-01T06:59:01;0.10;;;0.10;;
27833;SDS011;15200;50.570;7.244;2023-04-01T07:04:08;0.50;;;0.20;;
27833;SDS011;15200;50.570;7.244;2023-04-01T07:06:35;0.10;;;0.10;;
27833;SDS011;15200;50.570;7.244;2023-04-01T07:09:08;3.35;;;0.20;;
27833;SDS011;15200;50.570;7.244;2023-04-01T07:11:35;0.30;;;0.30;;
27833;SDS011;15200;50.570;7.244;2023-04-01T07:14:24;1.07;;;0.20;;
27833;SDS011;15200;50.570;7.244;2023-04-01T07:16:51;0.20;;;0.10;;
27833;SDS011;15200;50.570;7.244;2023-04-01T07:19:28;0.10;;;0.10;;
27833;SDS011;15200;50.570;7.244;2023-04-01T07:21:55;0.45;;;0.20;;
27833;SDS011;15200;50.570;7.244;2023-04-01T07:24:32;1.00;;;0.15;;
27833;SDS011;15200;50.570;7.244;2023-04-01T07:26:58;0.53;;;0.20;;
27833;SDS011;15200;50.570;7.244;2023-04-01T07:29:26;0.10;;;0.10;;
27833;SDS011;15200;50.570;7.244;2023-04-01T07:32:07;0.10;;;0.10;;
27833;SDS011;15200;50.570;7.244;2023-04-01T07:45:23;2.08;;;0.20;;
27833;SDS011;15200;50.570;7.244;2023-04-01T07:48:00;0.10;;;0.10;;
27833;SDS011;15200;50.570;7.244;2023-04-01T07:50:26;4.00;;;0.20;;
27833;SDS011;15200;50.570;7.244;2023-04-01T07:52:57;0.70;;;0.30;;
27833;SDS011;15200;50.570;7.244;2023-04-01T07:55:28;0.10;;;0.10;;
27833;SDS011;15200;50.570;7.244;2023-04-01T07:58:13;0.20;;;0.20;;
27833;SDS011;15200;50.570;7.244;2023-04-01T08:00:42;0.33;;;0.30;;
27833;SDS011;15200;50.570;7.244;2023-04-01T08:03:20;0.20;;;0.20;;
27833;SDS011;15200;50.570;7.244;2023-04-01T08:05:47;0.13;;;0.13;;
27833;SDS011;15200;50.570;7.244;2023-04-01T08:08:19;0.40;;;0.15;;
27833;SDS011;15200;50.570;7.244;2023-04-01T08:10:55;0.45;;;0.10;;
27833;SDS011;15200;50.570;7.244;2023-04-01T08:13:31;1.57;;;0.10;;
27833;SDS011;15200;50.570;7.244;2023-04-01T08:18:46;0.30;;;0.20;;
27833;SDS011;15200;50.570;7.244;2023-04-01T08:21:15;0.20;;;0.20;;
27833;SDS011;15200;50.570;7.244;2023-04-01T08:23:46;0.20;;;0.20;;
27833;SDS011;15200;50.570;7.244;2023-04-01T08:26:18;0.20;;;0.10;;
27833;SDS011;15200;50.570;7.244;2023-04-01T08:31:35;0.15;;;0.15;;
27833;SDS011;15200;50.570;7.244;2023-04-01T08:33:58;1.47;;;0.15;;
27833;SDS011;15200;50.570;7.244;2023-04-01T08:36:28;0.10;;;0.10;;
27833;SDS011;15200;50.570;7.244;2023-04-01T08:39:13;0.35;;;0.35;;
27833;SDS011;15200;50.570;7.244;2023-04-01T08:41:58;0.65;;;0.40;;
27833;SDS011;15200;50.570;7.244;2023-04-01T08:44:34;0.30;;;0.30;;
27833;SDS011;15200;50.570;7.244;2023-04-01T08:47:20;0.20;;;0.20;;
27833;SDS011;15200;50.570;7.244;2023-04-01T08:55:01;0.20;;;0.20;;
27833;SDS011;15200;50.570;7.244;2023-04-01T08:57:38;0.70;;;0.37;;
27833;SDS011;15200;50.570;7.244;2023-04-01T09:05:31;2.27;;;1.77;;
27833;SDS011;15200;50.570;7.244;2023-04-01T09:13:13;0.20;;;0.20;;
27833;SDS011;15200;50.570;7.244;2023-04-01T09:15:48;0.20;;;0.20;;
27833;SDS011;15200;50.570;7.244;2023-04-01T09:18:24;0.70;;;0.53;;
27833;SDS011;15200;50.570;7.244;2023-04-01T09:26:02;0.25;;;0.25;;
27833;SDS011;15200;50.570;7.244;2023-04-01T09:28:42;0.82;;;0.82;;
27833;SDS011;15200;50.570;7.244;2023-04-01T09:33:47;0.72;;;0.30;;
27833;SDS011;15200;50.570;7.244;2023-04-01T09:38:56;0.50;;;0.40;;
27833;SDS011;15200;50.570;7.244;2023-04-01T09:41:31;0.30;;;0.30;;
27833;SDS011;15200;50.570;7.244;2023-04-01T09:46:48;0.42;;;0.28;;
27833;SDS011;15200;50.570;7.244;2023-04-01T10:05:30;1.10;;;0.25;;
27833;SDS011;15200;50.570;7.244;2023-04-01T10:10:37;0.17;;;0.17;;
27833;SDS011;15200;50.570;7.244;2023-04-01T10:13:17;0.50;;;0.50;;
27833;SDS011;15200;50.570;7.244;2023-04-01T10:23:51;0.53;;;0.20;;
27833;SDS011;15200;50.570;7.244;2023-04-01T10:31:55;0.82;;;0.40;;
27833;SDS011;15200;50.570;7.244;2023-04-01T10:34:27;0.30;;;0.30;;
27833;SDS011;15200;50.570;7.244;2023-04-01T10:39:29;0.62;;;0.30;;
27833;SDS011;15200;50.570;7.244;2023-04-01T10:52:46;0.42;;;0.30;;
27833;SDS011;15200;50.570;7.244;2023-04-01T10:58:05;0.23;;;0.23;;
27833;SDS011;15200;50.570;7.244;2023-04-01T11:00:48;0.30;;;0.30;;
27833;SDS011;15200;50.570;7.244;2023-04-01T11:05:54;1.80;;;0.50;;
27833;SDS011;15200;50.570;7.244;2023-04-01T11:08:31;0.82;;;0.40;;
27833;SDS011;15200;50.570;7.244;2023-04-01T11:13:48;1.10;;;0.50;;
27833;SDS011;15200;50.570;7.244;2023-04-01T11:18:50;0.95;;;0.30;;
27833;SDS011;15200;50.570;7.244;2023-04-01T11:27:05;0.45;;;0.40;;
27833;SDS011;15200;50.570;7.244;2023-04-01T11:32:29;0.75;;;0.60;;
27833;SDS011;15200;50.570;7.244;2023-04-01T11:34:58;0.30;;;0.30;;
27833;SDS011;15200;50.570;7.244;2023-04-01T11:37:28;0.90;;;0.90;;
27833;SDS011;15200;50.570;7.244;2023-04-01T11:39:59;0.57;;;0.55;;
27833;SDS011;15200;50.570;7.244;2023-04-01T11:42:31;0.75;;;0.75;;
27833;SDS011;15200;50.570;7.244;2023-04-01T11:45:43;0.20;;;0.10;;
27833;SDS011;15200;50.570;7.244;2023-04-01T11:52:55;0.93;;;0.30;;
27833;SDS011;15200;50.570;7.244;2023-04-01T11:55:31;0.40;;;0.40;;
27833;SDS011;15200;50.570;7.244;2023-04-01T12:00:33;0.10;;;0.10;;
27833;SDS011;15200;50.570;7.244;2023-04-01T12:08:24;0.28;;;0.28;;
27833;SDS011;15200;50.570;7.244;2023-04-01T12:11:07;0.30;;;0.20;;
27833;SDS011;15200;50.570;7.244;2023-04-01T12:13:45;0.40;;;0.30;;
27833;SDS011;15200;50.570;7.244;2023-04-01T12:21:55;0.10;;;0.10;;
27833;SDS011;15200;50.570;7.244;2023-04-01T12:27:07;0.20;;;0.20;;
27833;SDS011;15200;50.570;7.244;2023-04-01T12:35:18;0.42;;;0.20;;
27833;SDS011;15200;50.570;7.244;2023-04-01T12:38:05;0.20;;;0.20;;
27833;SDS011;15200;50.570;7.244;2023-04-01T12:40:31;0.20;;;0.20;;
27833;SDS011;15200;50.570;7.244;2023-04-01T12:43:05;0.40;;;0.40;;
27833;SDS011;15200;50.570;7.244;2023-04-01T12:45:34;0.53;;;0.20;;
27833;SDS011;15200;50.570;7.244;2023-04-01T12:55:51;0.30;;;0.30;;
27833;SDS011;15200;50.570;7.244;2023-04-01T13:06:32;0.17;;;0.17;;
27833;SDS011;15200;50.570;7.244;2023-04-01T13:09:44;0.82;;;0.20;;
27833;SDS011;15200;50.570;7.244;2023-04-01T13:11:48;0.13;;;0.13;;
27833;SDS011;15200;50.570;7.244;2023-04-01T13:19:37;0.50;;;0.28;;
27833;SDS011;15200;50.570;7.244;2023-04-01T13:22:07;1.37;;;0.62;;
27833;SDS011;15200;50.570;7.244;2023-04-01T13:27:40;0.88;;;0.60;;
27833;SDS011;15200;50.570;7.244;2023-04-01T13:35:31;0.98;;;0.45;;
27833;SDS011;15200;50.570;7.244;2023-04-01T13:38:08;0.85;;;0.55;;
27833;SDS011;15200;50.570;7.244;2023-04-01T13:43:11;0.40;;;0.40;;
27833;SDS011;15200;50.570;7.244;2023-04-01T13:50:44;0.50;;;0.40;;
27833;SDS011;15200;50.570;7.244;2023-04-01T13:53:22;0.23;;;0.23;;
27833;SDS011;15200;50.570;7.244;2023-04-01T13:55:53;2.58;;;0.30;;
27833;SDS011;15200;50.570;7.244;2023-04-01T14:11:33;0.20;;;0.20;;
27833;SDS011;15200;50.570;7.244;2023-04-01T14:13:56;0.20;;;0.20;;
27833;SDS011;15200;50.570;7.244;2023-04-01T14:18:56;1.30;;;0.30;;
27833;SDS011;15200;50.570;7.244;2023-04-01T14:34:55;1.55;;;0.47;;
27833;SDS011;15200;50.570;7.244;2023-04-01T14:40:16;3.85;;;2.08;;
27833;SDS011;15200;50.570;7.244;2023-04-01T14:45:42;0.88;;;0.40;;
27833;SDS011;15200;50.570;7.244;2023-04-01T14:48:17;13.65;;;5.15;;
27833;SDS011;15200;50.570;7.244;2023-04-01T14:50:47;0.75;;;0.60;;
27833;SDS011;15200;50.570;7.244;2023-04-01T14:58:22;0.17;;;0.17;;
27833;SDS011;15200;50.570;7.244;2023-04-01T15:00:57;0.45;;;0.30;;
27833;SDS011;15200;50.570;7.244;2023-04-01T15:03:29;1.32;;;0.50;;
27833;SDS011;15200;50.570;7.244;2023-04-01T15:08:51;1.15;;;0.60;;
27833;SDS011;15200;50.570;7.244;2023-04-01T15:11:23;1.02;;;0.53;;
27833;SDS011;15200;50.570;7.244;2023-04-01T15:35:18;0.68;;;0.57;;
27833;SDS011;15200;50.570;7.244;2023-04-01T15:40:35;0.95;;;0.65;;
27833;SDS011;15200;50.570;7.244;2023-04-01T15:48:31;0.80;;;0.53;;
27833;SDS011;15200;50.570;7.244;2023-04-01T15:53:46;2.52;;;1.12;;
27833;SDS011;15200;50.570;7.244;2023-04-01T15:56:18;0.78;;;0.40;;
27833;SDS011;15200;50.570;7.244;2023-04-01T15:58:50;1.00;;;0.40;;
27833;SDS011;15200;50.570;7.244;2023-04-01T16:01:20;1.00;;;0.50;;
27833;SDS011;15200;50.570;7.244;2023-04-01T16:03:50;0.47;;;0.23;;
27833;SDS011;15200;50.570;7.244;2023-04-01T16:22:04;0.65;;;0.40;;
27833;SDS011;15200;50.570;7.244;2023-04-01T16:24:39;0.50;;;0.50;;
27833;SDS011;15200;50.570;7.244;2023-04-01T16:27:04;0.70;;;0.40;;
27833;SDS011;15200;50.570;7.244;2023-04-01T16:32:14;0.50;;;0.50;;
27833;SDS011;15200;50.570;7.244;2023-04-01T16:34:38;1.95;;;0.45;;
27833;SDS011;15200;50.570;7.244;2023-04-01T16:37:10;0.57;;;0.47;;
27833;SDS011;15200;50.570;7.244;2023-04-01T16:44:56;3.22;;;0.55;;
27833;SDS011;15200;50.570;7.244;2023-04-01T16:47:26;0.68;;;0.50;;
27833;SDS011;15200;50.570;7.244;2023-04-01T16:50:05;3.22;;;0.50;;
27833;SDS011;15200;50.570;7.244;2023-04-01T16:55:17;0.40;;;0.40;;
27833;SDS011;15200;50.570;7.244;2023-04-01T17:00:16;0.78;;;0.42;;
27833;SDS011;15200;50.570;7.244;2023-04-01T17:03:29;0.50;;;0.40;;
27833;SDS011;15200;50.570;7.244;2023-04-01T17:05:12;1.37;;;0.40;;
27833;SDS011;15200;50.570;7.244;2023-04-01T17:07:59;0.50;;;0.35;;
27833;SDS011;15200;50.570;7.244;2023-04-01T17:10:33;5.35;;;0.50;;
27833;SDS011;15200;50.570;7.244;2023-04-01T17:13:07;1.22;;;0.40;;
27833;SDS011;15200;50.570;7.244;2023-04-01T17:15:33;0.40;;;0.40;;
27833;SDS011;15200;50.570;7.244;2023-04-01T17:20:32;1.22;;;0.60;;
27833;SDS011;15200;50.570;7.244;2023-04-01T17:23:07;0.60;;;0.60;;
27833;SDS011;15200;50.570;7.244;2023-04-01T17:25:48;0.85;;;0.65;;
27833;SDS011;15200;50.570;7.244;2023-04-01T17:28:24;0.45;;;0.30;;
27833;SDS011;15200;50.570;7.244;2023-04-01T17:31:07;2.45;;;0.88;;
27833;SDS011;15200;50.570;7.244;2023-04-01T17:38:53;0.40;;;0.40;;
27833;SDS011;15200;50.570;7.244;2023-04-01T17:49:23;0.40;;;0.35;;
27833;SDS011;15200;50.570;7.244;2023-04-01T17:52:07;0.30;;;0.30;;
27833;SDS011;15200;50.570;7.244;2023-04-01T17:54:36;0.50;;;0.42;;
27833;SDS011;15200;50.570;7.244;2023-04-01T17:59:52;0.30;;;0.30;;
27833;SDS011;15200;50.570;7.244;2023-04-01T18:02:30;0.60;;;0.50;;
27833;SDS011;15200;50.570;7.244;2023-04-01T18:07:53;0.40;;;0.40;;
27833;SDS011;15200;50.570;7.244;2023-04-01T18:12:56;0.42;;;0.33;;
27833;SDS011;15200;50.570;7.244;2023-04-01T18:23:23;0.60;;;0.60;;
27833;SDS011;15200;50.570;7.244;2023-04-01T18:25:50;1.17;;;0.50;;
27833;SDS011;15200;50.570;7.244;2023-04-01T18:36:15;1.35;;;0.80;;
27833;SDS011;15200;50.570;7.244;2023-04-01T18:39:02;1.02;;;0.57;;
27833;SDS011;15200;50.570;7.244;2023-04-01T18:41:14;0.78;;;0.50;;
27833;SDS011;15200;50.570;7.244;2023-04-01T18:43:51;0.95;;;0.60;;
27833;SDS011;15200;50.570;7.244;2023-04-01T18:46:20;1.15;;;0.60;;
27833;SDS011;15200;50.570;7.244;2023-04-01T18:51:26;0.53;;;0.47;;
27833;SDS011;15200;50.570;7.244;2023-04-01T18:56:38;0.60;;;0.60;;
27833;SDS011;15200;50.570;7.244;2023-04-01T18:59:16;1.67;;;0.60;;
27833;SDS011;15200;50.570;7.244;2023-04-01T19:04:33;0.47;;;0.47;;
27833;SDS011;15200;50.570;7.244;2023-04-01T19:07:19;0.60;;;0.60;;
27833;SDS011;15200;50.570;7.244;2023-04-01T19:09:31;0.60;;;0.60;;
27833;SDS011;15200;50.570;7.244;2023-04-01T19:14:44;2.98;;;0.60;;
27833;SDS011;15200;50.570;7.244;2023-04-01T19:22:21;0.50;;;0.50;;
27833;SDS011;15200;50.570;7.244;2023-04-01T19:35:29;0.70;;;0.70;;
27833;SDS011;15200;50.570;7.244;2023-04-01T19:40:46;0.70;;;0.70;;
27833;SDS011;15200;50.570;7.244;2023-04-01T19:43:21;0.90;;;0.80;;
27833;SDS011;15200;50.570;7.244;2023-04-01T19:48:19;2.45;;;0.93;;
27833;SDS011;15200;50.570;7.244;2023-04-01T19:50:46;1.05;;;0.70;;
27833;SDS011;15200;50.570;7.244;2023-04-01T19:56:00;2.27;;;0.80;;
27833;SDS011;15200;50.570;7.244;2023-04-01T19:58:26;1.17;;;0.93;;
27833;SDS011;15200;50.570;7.244;2023-04-01T20:00:57;2.20;;;1.00;;
27833;SDS011;15200;50.570;7.244;2023-04-01T20:06:10;0.80;;;0.65;;
27833;SDS011;15200;50.570;7.244;2023-04-01T20:08:42;1.75;;;1.22;;
27833;SDS011;15200;50.570;7.244;2023-04-01T20:11:21;1.50;;;1.05;;
27833;SDS011;15200;50.570;7.244;2023-04-01T20:16:19;1.12;;;0.90;;
27833;SDS011;15200;50.570;7.244;2023-04-01T20:23:50;1.32;;;1.12;;
27833;SDS011;15200;50.570;7.244;2023-04-01T20:26:24;1.37;;;1.10;;
27833;SDS011;15200;50.570;7.244;2023-04-01T20:31:41;4.58;;;1.12;;
27833;SDS011;15200;50.570;7.244;2023-04-01T20:34:50;3.37;;;1.12;;
27833;SDS011;15200;50.570;7.244;2023-04-01T20:36:54;1.65;;;1.12;;
27833;SDS011;15200;50.570;7.244;2023-04-01T20:49:48;2.47;;;1.30;;
27833;SDS011;15200;50.570;7.244;2023-04-01T20:54:53;2.85;;;1.00;;
27833;SDS011;15200;50.570;7.244;2023-04-01T20:57:38;1.30;;;1.20;;
27833;SDS011;15200;50.570;7.244;2023-04-01T21:00:18;1.65;;;0.93;;
27833;SDS011;15200;50.570;7.244;2023-04-01T21:02:48;1.60;;;1.20;;
27833;SDS011;15200;50.570;7.244;2023-04-01T21:13:15;2.27;;;0.80;;
27833;SDS011;15200;50.570;7.244;2023-04-01T21:15:44;1.10;;;0.72;;
27833;SDS011;15200;50.570;7.244;2023-04-01T21:18:20;3.08;;;1.37;;
27833;SDS011;15200;50.570;7.244;2023-04-01T21:25:56;1.80;;;1.57;;
27833;SDS011;15200;50.570;7.244;2023-04-01T21:28:40;3.20;;;1.52;;
27833;SDS011;15200;50.570;7.244;2023-04-01T21:36:37;2.98;;;2.15;;
27833;SDS011;15200;50.570;7.244;2023-04-01T21:39:08;4.67;;;1.82;;
27833;SDS011;15200;50.570;7.244;2023-04-01T21:44:26;5.58;;;2.25;;
27833;SDS011;15200;50.570;7.244;2023-04-01T21:49:38;2.77;;;2.05;;
27833;SDS011;15200;50.570;7.244;2023-04-01T21:52:03;3.62;;;2.08;;
27833;SDS011;15200;50.570;7.244;2023-04-01T22:05:02;4.22;;;2.30;;
27833;SDS011;15200;50.570;7.244;2023-04-01T22:07:38;3.17;;;2.25;;
27833;SDS011;15200;50.570;7.244;2023-04-01T22:10:00;4.05;;;2.47;;
27833;SDS011;15200;50.570;7.244;2023-04-01T22:12:31;5.22;;;2.25;;
27833;SDS011;15200;50.570;7.244;2023-04-01T22:22:50;3.30;;;1.98;;
27833;SDS011;15200;50.570;7.244;2023-04-01T22:25:19;5.42;;;1.87;;
27833;SDS011;15200;50.570;7.244;2023-04-01T22:27:47;4.12;;;2.15;;
27833;SDS011;15200;50.570;7.244;2023-04-01T22:30:17;2.65;;;1.60;;
27833;SDS011;15200;50.570;7.244;2023-04-01T22:32:45;2.15;;;1.65;;
27833;SDS011;15200;50.570;7.244;2023-04-01T22:35:24;4.72;;;1.90;;
27833;SDS011;15200;50.570;7.244;2023-04-01T22:37:58;2.08;;;1.50;;
27833;SDS011;15200;50.570;7.244;2023-04-01T22:40:26;1.12;;;1.02;;
27833;SDS011;15200;50.570;7.244;2023-04-01T22:42:58;2.05;;;1.25;;
27833;SDS011;15200;50.570;7.244;2023-04-01T22:48:13;1.90;;;1.32;;